Time;durP1;ratioP1;P1;durP2;ratioP2;P2;SDS_P1;SDS_P2;PMS_P1;PMS_P2;Temp;Humidity;BMP_temperature;BMP_pressure;BME280_temperature;BME280_humidity;BME280_pressure;Samples;Min_cycle;Max_cycle;Signal;HPM_P1;HPM_P2
2021/11/03 00:01:51;;;;;;;;;;;;;;;6.22;100.00;98416.97;1673565;85;20457;-67
2021/11/03 00:04:18;;;;;;;;;;;;;;;6.23;100.00;98424.42;1673380;85;21218;-67
2021/11/03 00:06:45;;;;;;;;;;;;;;;6.25;100.00;98421.49;1673534;85;20120;-69
2021/11/03 00:09:11;;;;;;;;;;;;;;;6.24;100.00;98423.36;1669910;85;20095;-67
2021/11/03 00:11:39;;;;;;;;;;;;;;;6.23;100.00;98413.77;1673067;85;20168;-67
2021/11/03 00:14:06;;;;;;;;;;;;;;;6.25;100.00;98416.98;1673361;85;20115;-68
2021/11/03 00:16:32;;;;;;;;;;;;;;;6.26;100.00;98413.79;1692472;84;21197;-68
2021/11/03 00:18:59;;;;;;;;;;;;;;;6.26;100.00;98417.78;1710182;84;21752;-67
2021/11/03 00:21:25;;;;;;;;;;;;;;;6.25;100.00;98412.16;1710054;84;20135;-67
2021/11/03 00:23:52;;;;;;;;;;;;;;;6.26;100.00;98406.59;1710258;84;20089;-68
2021/11/03 00:26:18;;;;;;;;;;;;;;;6.28;100.00;98407.69;1710156;84;20126;-67
2021/11/03 00:28:46;;;;;;;;;;;;;;;6.30;100.00;98410.91;1707081;84;21824;-66
2021/11/03 00:31:12;;;;;;;;;;;;;;;6.30;100.00;98414.37;1708665;84;20098;-66
2021/11/03 00:33:39;;;;;;;;;;;;;;;6.31;100.00;98413.30;1709925;84;20123;-68
2021/11/03 00:36:08;;;;;;;;;;;;;;;6.33;100.00;98415.19;1709677;84;20447;-68
2021/11/03 00:38:35;;;;;;;;;;;;;;;6.36;100.00;98411.20;1709482;84;20174;-67
2021/11/03 00:41:02;;;;;;;;;;;;;;;6.37;100.00;98410.97;1710880;84;21147;-67
2021/11/03 00:43:30;;;;;;;;;;;;;;;6.39;100.00;98418.69;1709727;84;20122;-66
2021/11/03 00:45:58;;;;;;;;;;;;;;;6.41;100.00;98421.38;1707438;84;20182;-67
2021/11/03 00:48:25;;;;;;;;;;;;;;;6.41;100.00;98418.70;1704953;84;20093;-66
2021/11/03 00:50:51;;;;;;;;;;;;;;;6.42;100.00;98423.00;1687270;84;20098;-66
2021/11/03 00:53:18;;;;;;;;;;;;;;;6.43;100.00;98425.92;1688848;84;21127;-66
2021/11/03 00:55:45;;;;;;;;;;;;;;;6.43;100.00;98423.27;1686478;84;20160;-68
2021/11/03 00:58:12;;;;;;;;;;;;;;;6.44;100.00;98414.73;1708070;84;20436;-68
2021/11/03 01:00:39;;;;;;;;;;;;;;;6.43;100.00;98418.47;1711012;84;20087;-68
2021/11/03 01:03:06;;;;;;;;;;;;;;;6.46;100.00;98414.48;1710021;84;20118;-68
2021/11/03 01:05:38;;;;;;;;;;;;;;;6.47;100.00;98417.41;1710442;84;21123;-68
2021/11/03 01:08:02;;;;;;;;;;;;;;;6.47;100.00;98416.08;1710911;84;20412;-68
2021/11/03 01:10:29;;;;;;;;;;;;;;;6.47;100.00;98417.41;1708280;84;20196;-68
2021/11/03 01:12:57;;;;;;;;;;;;;;;6.47;100.00;98418.75;1710205;84;20446;-68
2021/11/03 01:15:24;;;;;;;;;;;;;;;6.48;100.00;98412.38;1706435;84;20124;-67
2021/11/03 01:17:54;;;;;;;;;;;;;;;6.50;100.00;98423.05;1695319;84;21151;-67
2021/11/03 01:20:21;;;;;;;;;;;;;;;6.50;100.00;98419.05;1693886;84;20119;-67
2021/11/03 01:22:48;;;;;;;;;;;;;;;6.51;100.00;98415.86;1694531;84;20479;-67
2021/11/03 01:25:14;;;;;;;;;;;;;;;6.51;100.00;98420.66;1695628;84;20151;-67
2021/11/03 01:27:42;;;;;;;;;;;;;;;6.51;100.00;98411.86;1696374;84;20296;-65
2021/11/03 01:30:11;;;;;;;;;;;;;;;6.49;100.00;98412.10;1696504;84;21091;-64
2021/11/03 01:32:38;;;;;;;;;;;;;;;6.50;100.00;98419.59;1696349;84;20111;-67
2021/11/03 01:35:05;;;;;;;;;;;;;;;6.51;100.00;98408.66;1696312;84;20417;-66
2021/11/03 01:37:32;;;;;;;;;;;;;;;6.52;100.00;98406.28;1696680;84;20095;-66
2021/11/03 01:39:59;;;;;;;;;;;;;;;6.52;100.00;98404.16;1696180;84;20171;-66
2021/11/03 01:42:28;;;;;;;;;;;;;;;6.55;100.00;98407.63;1695568;84;21209;-67
2021/11/03 01:44:55;;;;;;;;;;;;;;;6.55;100.00;98403.64;1695219;84;20191;-67
2021/11/03 01:47:47;;;;;;;;;;;;;;;6.55;100.00;98404.43;1695565;84;20099;-70
2021/11/03 01:50:40;;;;;;;;;;;;;;;6.55;100.00;98397.77;1679938;84;20138;-65
2021/11/03 01:53:15;;;;;;;;;;;;;;;6.56;100.00;98411.36;1696818;84;20504;-67
2021/11/03 01:55:45;;;;;;;;;;;;;;;6.60;100.00;98414.33;1695774;84;21108;-67
2021/11/03 01:58:15;;;;;;;;;;;;;;;6.60;100.00;98408.47;1672115;84;20147;-67
2021/11/03 02:00:42;;;;;;;;;;;;;;;6.61;100.00;98412.75;1694970;84;20266;-67
2021/11/03 02:03:14;;;;;;;;;;;;;;;6.61;100.00;98406.09;1695942;84;20151;-66
2021/11/03 02:05:47;;;;;;;;;;;;;;;6.63;100.00;98412.48;1693331;84;20429;-65
2021/11/03 02:08:14;;;;;;;;;;;;;;;6.61;100.00;98408.75;1695564;84;22020;-67
2021/11/03 02:10:42;;;;;;;;;;;;;;;6.64;100.00;98404.77;1693788;84;20424;-67
2021/11/03 02:13:11;;;;;;;;;;;;;;;6.65;100.00;98409.03;1695571;84;20095;-66
2021/11/03 02:15:39;;;;;;;;;;;;;;;6.65;100.00;98406.37;1690561;84;20196;-65
2021/11/03 02:18:06;;;;;;;;;;;;;;;6.67;100.00;98409.59;1695256;84;20132;-65
2021/11/03 02:20:33;;;;;;;;;;;;;;;6.69;100.00;98409.31;1695251;84;21173;-66
2021/11/03 02:23:23;;;;;;;;;;;;;;;6.70;100.00;98412.27;1695064;84;20120;-66
2021/11/03 02:25:58;;;;;;;;;;;;;;;6.73;100.00;98409.09;1695607;84;20123;-67
2021/11/03 02:28:26;;;;;;;;;;;;;;;6.76;100.00;98413.39;1695298;84;20153;-65
2021/11/03 02:30:53;;;;;;;;;;;;;;;6.77;100.00;98408.86;1668490;84;20179;-66
2021/11/03 02:33:22;;;;;;;;;;;;;;;6.81;100.00;98403.27;1695857;84;21818;-67
2021/11/03 02:35:58;;;;;;;;;;;;;;;6.81;100.00;98404.09;1696402;84;20469;-66
2021/11/03 02:38:28;;;;;;;;;;;;;;;6.84;100.00;98407.56;1690717;84;20167;-68
2021/11/03 02:41:02;;;;;;;;;;;;;;;6.85;100.00;98403.83;1695144;84;20152;-66
2021/11/03 02:43:34;;;;;;;;;;;;;;;6.88;100.00;98405.17;1692760;84;20143;-67
2021/11/03 02:46:01;;;;;;;;;;;;;;;6.91;100.00;98409.19;1695872;84;21189;-67
2021/11/03 02:48:29;;;;;;;;;;;;;;;6.90;100.00;98409.73;1695397;84;20229;-66
2021/11/03 02:51:04;;;;;;;;;;;;;;;6.91;100.00;98402.52;1696132;84;20143;-67
2021/11/03 02:53:32;;;;;;;;;;;;;;;6.92;100.00;98417.48;1695744;84;20618;-64
2021/11/03 02:55:59;;;;;;;;;;;;;;;6.90;100.00;98416.39;1692791;84;20119;-65
2021/11/03 02:58:27;;;;;;;;;;;;;;;6.91;100.00;98414.02;1694605;84;21219;-63
2021/11/03 03:00:53;;;;;;;;;;;;;;;6.91;100.00;98411.35;1696141;84;20492;-65
2021/11/03 03:03:21;;;;;;;;;;;;;;;6.92;100.00;98410.81;1695201;84;20122;-65
2021/11/03 03:05:51;;;;;;;;;;;;;;;6.93;100.00;98419.88;1695174;84;20178;-64
2021/11/03 03:08:17;;;;;;;;;;;;;;;6.95;100.00;98414.30;1691797;84;20144;-65
2021/11/03 03:10:44;;;;;;;;;;;;;;;6.94;100.00;98414.83;1696454;84;21085;-63
2021/11/03 03:13:10;;;;;;;;;;;;;;;6.97;100.00;98412.18;1696246;84;20096;-64
2021/11/03 03:15:37;;;;;;;;;;;;;;;6.98;100.00;98417.27;1697204;84;20138;-65
2021/11/03 03:18:04;;;;;;;;;;;;;;;7.00;100.00;98419.66;1708321;84;20145;-67
2021/11/03 03:20:31;;;;;;;;;;;;;;;7.01;100.00;98418.61;1674734;85;20120;-64
2021/11/03 03:23:00;;;;;;;;;;;;;;;7.01;100.00;98417.28;1670219;85;21120;-64
2021/11/03 03:25:29;;;;;;;;;;;;;;;7.04;100.00;98418.09;1614578;89;20174;-64
2021/11/03 03:27:58;;;;;;;;;;;;;;;7.06;100.00;98418.64;1644310;85;20209;-65
2021/11/03 03:30:25;;;;;;;;;;;;;;;7.07;100.00;98417.56;1651727;86;20129;-64
2021/11/03 03:32:51;;;;;;;;;;;;;;;7.12;100.00;98420.80;1671010;85;20149;-66
2021/11/03 03:35:19;;;;;;;;;;;;;;;7.13;100.00;98415.22;1668981;85;21138;-66
2021/11/03 03:37:48;;;;;;;;;;;;;;;7.15;100.00;98413.60;1671390;85;20125;-66
2021/11/03 03:40:14;;;;;;;;;;;;;;;7.18;100.00;98417.08;1644423;85;20156;-64
2021/11/03 03:42:41;;;;;;;;;;;;;;;7.21;100.00;98413.91;1642237;85;20104;-64
2021/11/03 03:45:08;;;;;;;;;;;;;;;7.21;100.00;98407.24;1644062;85;20431;-64
2021/11/03 03:47:36;;;;;;;;;;;;;;;7.22;100.00;98410.97;1635124;87;21166;-65
2021/11/03 03:50:03;;;;;;;;;;;;;;;7.26;100.00;98415.27;1667871;86;20141;-65
2021/11/03 03:52:32;;;;;;;;;;;;;;;7.26;100.00;98413.94;1672077;86;20094;-64
2021/11/03 03:54:59;;;;;;;;;;;;;;;7.28;100.00;98418.48;1671546;85;20631;-65
2021/11/03 03:57:25;;;;;;;;;;;;;;;7.30;100.00;98425.17;1669038;85;20113;-65
2021/11/03 03:59:52;;;;;;;;;;;;;;;7.33;100.00;98416.37;1700136;84;21173;-65
2021/11/03 04:02:19;;;;;;;;;;;;;;;7.36;100.00;98419.31;1707305;84;20098;-65
2021/11/03 04:04:45;;;;;;;;;;;;;;;7.41;100.00;98429.22;1673530;85;20099;-66
2021/11/03 04:07:12;;;;;;;;;;;;;;;7.42;100.00;98426.30;1673339;86;20579;-65
2021/11/03 04:09:39;;;;;;;;;;;;;;;7.45;100.00;98421.77;1674070;85;20115;-63
2021/11/03 04:12:09;;;;;;;;;;;;;;;7.47;100.00;98429.50;1707262;84;20126;-64
2021/11/03 04:14:36;;;;;;;;;;;;;;;7.48;100.00;98421.78;1707113;84;20091;-66
2021/11/03 04:17:04;;;;;;;;;;;;;;;7.50;100.00;98435.67;1707614;83;20177;-66
2021/11/03 04:19:31;;;;;;;;;;;;;;;7.51;100.00;98431.39;1707665;84;20143;-65
2021/11/03 04:21:58;;;;;;;;;;;;;;;7.54;100.00;98436.73;1707155;84;20143;-65
2021/11/03 04:24:28;;;;;;;;;;;;;;;7.57;100.00;98436.75;1708232;84;21175;-66
2021/11/03 04:26:55;;;;;;;;;;;;;;;7.58;100.00;98439.17;1708477;84;20465;-66
2021/11/03 04:29:22;;;;;;;;;;;;;;;7.61;100.00;98431.16;1707339;84;20102;-64
2021/11/03 04:31:50;;;;;;;;;;;;;;;7.64;100.00;98442.14;1707376;84;20099;-65
2021/11/03 04:34:17;;;;;;;;;;;;;;;7.66;100.00;98441.86;1702449;84;20436;-66
2021/11/03 04:36:45;;;;;;;;;;;;;;;7.67;100.00;98448.29;1707323;84;21164;-66
2021/11/03 04:39:12;;;;;;;;;;;;;;;7.70;100.00;98449.09;1694458;84;20163;-65
2021/11/03 04:41:41;;;;;;;;;;;;;;;7.72;100.00;98450.98;1679621;85;20153;-66
2021/11/03 04:44:08;;;;;;;;;;;;;;;7.75;100.00;98459.00;1678914;85;20104;-65
2021/11/03 04:46:36;;;;;;;;;;;;;;;7.76;100.00;98454.45;1695577;84;20123;-66
2021/11/03 04:49:03;;;;;;;;;;;;;;;7.77;100.00;98458.20;1679521;85;22055;-66
2021/11/03 04:51:30;;;;;;;;;;;;;;;7.78;100.00;98458.47;1651546;87;20175;-64
2021/11/03 04:53:57;;;;;;;;;;;;;;;7.82;100.00;98464.11;1692773;84;20174;-66
2021/11/03 04:56:27;;;;;;;;;;;;;;;7.83;100.00;98467.03;1707025;84;20086;-64
2021/11/03 04:58:56;;;;;;;;;;;;;;;7.84;100.00;98470.79;1702682;84;20131;-66
2021/11/03 05:01:24;;;;;;;;;;;;;;;7.85;100.00;98472.39;1707711;84;21104;-66
2021/11/03 05:03:53;;;;;;;;;;;;;;;7.85;100.00;98471.05;1707911;84;20154;-66
2021/11/03 05:06:25;;;;;;;;;;;;;;;7.89;100.00;98481.49;1667997;86;20529;-66
2021/11/03 05:08:54;;;;;;;;;;;;;;;7.89;100.00;98481.49;1694404;84;20173;-64
2021/11/03 05:11:22;;;;;;;;;;;;;;;7.90;100.00;98471.06;1711099;84;20150;-65
2021/11/03 05:13:48;;;;;;;;;;;;;;;7.93;100.00;98485.77;1710151;84;21250;-66
2021/11/03 05:16:20;;;;;;;;;;;;;;;7.96;100.00;98479.89;1710157;83;20086;-66
2021/11/03 05:18:47;;;;;;;;;;;;;;;7.98;100.00;98483.64;1707220;84;20169;-65
2021/11/03 05:21:14;;;;;;;;;;;;;;;7.99;100.00;98490.61;1707575;82;20110;-66
2021/11/03 05:23:41;;;;;;;;;;;;;;;8.01;100.00;98496.48;1710300;82;20166;-67
2021/11/03 05:26:08;;;;;;;;;;;;;;;8.02;100.00;98494.09;1708727;82;21077;-66
2021/11/03 05:28:35;;;;;;;;;;;;;;;8.02;100.00;98500.77;1677513;84;20118;-66
2021/11/03 05:31:03;;;;;;;;;;;;;;;8.04;100.00;98503.45;1673881;85;20141;-66
2021/11/03 05:33:30;;;;;;;;;;;;;;;8.06;100.00;98506.67;1673927;85;20663;-64
2021/11/03 05:35:56;;;;;;;;;;;;;;;8.07;100.00;98516.28;1672974;85;20147;-65
2021/11/03 05:38:23;;;;;;;;;;;;;;;8.10;100.00;98516.28;1673552;84;21162;-67
2021/11/03 05:40:49;;;;;;;;;;;;;;;8.11;100.00;98529.40;1678593;84;20138;-67
2021/11/03 05:43:16;;;;;;;;;;;;;;;8.15;100.00;98525.66;1673630;85;20143;-68
2021/11/03 05:45:50;;;;;;;;;;;;;;;8.18;100.00;98528.33;1672424;85;20170;-69
2021/11/03 05:48:18;;;;;;;;;;;;;;;8.19;100.00;98538.77;1673087;85;20119;-67
2021/11/03 05:50:47;;;;;;;;;;;;;;;8.20;100.00;98531.02;1673588;85;21814;-65
2021/11/03 05:53:15;;;;;;;;;;;;;;;8.21;100.00;98537.98;1673482;85;20453;-67
2021/11/03 05:55:43;;;;;;;;;;;;;;;8.21;100.00;98545.20;1673205;85;20087;-63
2021/11/03 05:58:10;;;;;;;;;;;;;;;8.24;100.00;98553.48;1674057;84;20199;-66
2021/11/03 06:00:37;;;;;;;;;;;;;;;8.25;100.00;98550.28;1672897;85;20156;-64
2021/11/03 06:03:04;;;;;;;;;;;;;;;8.29;100.00;98566.88;1672427;85;21218;-65
2021/11/03 06:05:31;;;;;;;;;;;;;;;8.32;100.00;98569.02;1662720;86;20182;-70
2021/11/03 06:08:04;;;;;;;;;;;;;;;8.34;100.00;98567.42;1673480;84;20087;-65
2021/11/03 06:10:38;;;;;;;;;;;;;;;8.37;100.00;98570.36;1672675;85;20195;-65
2021/11/03 06:13:06;;;;;;;;;;;;;;;8.39;100.00;98578.13;1688733;83;20166;-65
2021/11/03 06:15:33;;;;;;;;;;;;;;;8.43;100.00;98583.77;1673473;85;21302;-66
2021/11/03 06:18:00;;;;;;;;;;;;;;;8.45;100.00;98591.00;1674385;84;20148;-68
2021/11/03 06:20:28;;;;;;;;;;;;;;;8.48;100.00;98587.83;1674628;85;20116;-65
2021/11/03 06:22:56;;;;;;;;;;;;;;;8.51;100.00;98585.95;1674831;84;20464;-67
2021/11/03 06:25:24;;;;;;;;;;;;;;;8.54;100.00;98582.75;1669270;84;20156;-66
2021/11/03 06:27:52;;;;;;;;;;;;;;;8.59;100.00;98592.91;1676645;84;21086;-64
2021/11/03 06:30:20;;;;;;;;;;;;;;;8.64;100.00;98601.48;1672803;85;20149;-66
2021/11/03 06:32:47;;;;;;;;;;;;;;;8.67;100.00;98600.98;1707200;83;20193;-68
2021/11/03 06:35:38;;;;;;;;;;;;;;;8.68;100.00;98608.47;1702997;82;20126;-66
2021/11/03 06:38:11;;;;;;;;;;;;;;;8.68;100.00;98606.59;1698827;82;20130;-68
2021/11/03 06:40:41;;;;;;;;;;;;;;;8.71;100.00;98615.42;1710437;82;21153;-68
2021/11/03 06:43:08;;;;;;;;;;;;;;;8.74;100.00;98614.09;1705513;82;20248;-65
2021/11/03 06:45:34;;;;;;;;;;;;;;;8.76;100.00;98619.98;1709079;82;20178;-68
2021/11/03 06:48:01;;;;;;;;;;;;;;;8.77;100.00;98626.42;1673564;85;20207;-68
2021/11/03 06:50:32;;;;;;;;;;;;;;;8.80;100.00;98627.77;1672922;85;20254;-69
2021/11/03 06:53:00;;;;;;;;;;;;;;;8.80;100.00;98623.20;1661927;85;21168;-70
2021/11/03 06:55:27;;;;;;;;;;;;;;;8.84;100.00;98619.99;1684565;84;20145;-66
2021/11/03 06:57:56;;;;;;;;;;;;;;;8.89;100.00;98626.69;1701699;84;20212;-67
2021/11/03 07:00:32;;;;;;;;;;;;;;;8.94;100.00;98634.72;1672841;84;20453;-67
2021/11/03 07:03:00;;;;;;;;;;;;;;;8.98;100.00;98639.28;1672074;86;20238;-66
2021/11/03 07:05:29;;;;;;;;;;;;;;;9.04;100.00;98632.59;1667910;85;20190;-69
2021/11/03 07:07:56;;;;;;;;;;;;;;;9.07;100.00;98635.56;1673156;85;20448;-69
2021/11/03 07:10:28;;;;;;;;;;;;;;;9.09;100.00;98634.77;1673413;85;20100;-67
2021/11/03 07:12:55;;;;;;;;;;;;;;;9.13;100.00;98630.47;1658465;85;20159;-67
2021/11/03 07:15:23;;;;;;;;;;;;;;;9.14;100.00;98633.97;1707469;84;20479;-67
2021/11/03 07:17:52;;;;;;;;;;;;;;;9.20;100.00;98641.72;1707990;81;21183;-67
2021/11/03 07:20:20;;;;;;;;;;;;;;;9.22;100.00;98646.28;1697862;82;20177;-67
2021/11/03 07:22:49;;;;;;;;;;;;;;;9.26;100.00;98648.41;1702365;82;20156;-66
2021/11/03 07:25:18;;;;;;;;;;;;;;;9.26;100.00;98649.75;1690235;84;20209;-68
2021/11/03 07:27:46;;;;;;;;;;;;;;;9.24;100.00;98654.05;1713962;82;20492;-66
2021/11/03 07:30:16;;;;;;;;;;;;;;;9.29;100.00;98656.73;1710204;84;21163;-67
2021/11/03 07:32:45;;;;;;;;;;;;;;;9.32;100.00;98660.75;1710241;84;20146;-68
2021/11/03 07:35:12;;;;;;;;;;;;;;;9.40;100.00;98670.38;1710147;84;20417;-68
2021/11/03 07:37:40;;;;;;;;;;;;;;;9.44;100.00;98664.77;1709948;84;20499;-65
2021/11/03 07:40:13;;;;;;;;;;;;;;;9.49;100.00;98667.19;1709803;84;20127;-68
2021/11/03 07:42:40;;;;;;;;;;;;;;;9.43;100.00;98663.68;1709458;84;21108;-68
2021/11/03 07:45:08;;;;;;;;;;;;;;;9.42;100.00;98668.24;1709206;84;20441;-69
2021/11/03 07:47:39;;;;;;;;;;;;;;;9.37;100.00;98668.24;1709887;84;20478;-71
2021/11/03 07:50:11;;;;;;;;;;;;;;;9.35;100.00;98673.05;1710156;82;20146;-70
2021/11/03 07:52:37;;;;;;;;;;;;;;;9.31;100.00;98671.17;1721541;82;20176;-67
2021/11/03 07:55:05;;;;;;;;;;;;;;;9.40;100.00;98676.28;1720983;82;21107;-67
2021/11/03 07:57:32;;;;;;;;;;;;;;;9.49;100.00;98685.39;1712169;82;20103;-67
2021/11/03 08:00:00;;;;;;;;;;;;;;;9.40;100.00;98682.44;1718547;82;20094;-68
2021/11/03 08:02:26;;;;;;;;;;;;;;;9.33;100.00;98682.43;1700228;84;20182;-68
2021/11/03 08:04:53;;;;;;;;;;;;;;;9.30;100.00;98680.30;1703436;84;20213;-67
2021/11/03 08:07:19;;;;;;;;;;;;;;;9.37;100.00;98691.55;1703454;83;21221;-67
2021/11/03 08:09:52;;;;;;;;;;;;;;;9.52;100.00;98696.11;1713330;83;20183;-67
2021/11/03 08:12:22;;;;;;;;;;;;;;;9.58;100.00;98690.49;1724193;82;20430;-69
2021/11/03 08:14:48;;;;;;;;;;;;;;;9.68;100.00;98696.39;1707334;82;20209;-70
2021/11/03 08:17:16;;;;;;;;;;;;;;;9.82;100.00;98708.69;1703814;82;20151;-68
2021/11/03 08:19:47;;;;;;;;;;;;;;;9.85;100.00;98708.17;1709118;84;21159;-71
2021/11/03 08:22:20;;;;;;;;;;;;;;;9.83;100.00;98712.99;1709555;84;20221;-69
2021/11/03 08:24:44;;;;;;;;;;;;;;;9.73;100.00;98725.06;1708899;84;20171;-69
2021/11/03 08:27:12;;;;;;;;;;;;;;;9.69;100.00;98726.66;1709096;82;20244;-70
2021/11/03 08:29:40;;;;;;;;;;;;;;;9.68;100.00;98721.02;1704665;84;20139;-71
2021/11/03 08:32:08;;;;;;;;;;;;;;;9.66;100.00;98726.66;1709045;84;21165;-70
2021/11/03 08:34:34;;;;;;;;;;;;;;;9.59;100.00;98731.48;1702142;84;20178;-70
2021/11/03 08:37:08;;;;;;;;;;;;;;;9.45;100.00;98733.33;1676787;85;20093;-70
2021/11/03 08:39:44;;;;;;;;;;;;;;;9.36;100.00;98740.84;1698766;84;20437;-72
2021/11/03 08:42:13;;;;;;;;;;;;;;;9.33;100.00;98744.02;1707387;84;20186;-71
2021/11/03 08:44:40;;;;;;;;;;;;;;;9.29;100.00;98736.27;1702986;84;21159;-70
2021/11/03 08:47:08;;;;;;;;;;;;;;;9.35;100.00;98753.94;1700685;84;20463;-73
2021/11/03 08:49:36;;;;;;;;;;;;;;;9.61;100.00;98755.59;1707612;82;20186;-69
2021/11/03 08:52:05;;;;;;;;;;;;;;;10.14;100.00;98762.00;1707976;84;20416;-70
2021/11/03 08:54:38;;;;;;;;;;;;;;;10.43;100.00;98762.26;1707737;84;20443;-71
2021/11/03 08:57:07;;;;;;;;;;;;;;;10.95;100.00;98765.61;1708010;84;21148;-74
2021/11/03 08:59:34;;;;;;;;;;;;;;;10.93;100.00;98761.84;1707328;84;20157;-70
2021/11/03 09:02:03;;;;;;;;;;;;;;;10.90;100.00;98770.97;1679311;84;20151;-75
2021/11/03 09:04:33;;;;;;;;;;;;;;;11.11;100.00;98771.70;1701979;82;20421;-71
2021/11/03 09:07:03;;;;;;;;;;;;;;;11.13;100.00;98777.05;1705490;82;20447;-69
2021/11/03 09:09:31;;;;;;;;;;;;;;;11.34;100.00;98784.48;1707207;82;21172;-72
2021/11/03 09:11:57;;;;;;;;;;;;;;;11.15;100.00;98787.53;1708914;82;20202;-69
2021/11/03 09:14:24;;;;;;;;;;;;;;;10.71;100.00;98795.74;1704616;84;20487;-70
2021/11/03 09:16:51;;;;;;;;;;;;;;;10.43;100.00;98797.13;1705557;84;20209;-72
2021/11/03 09:19:19;;;;;;;;;;;;;;;10.22;100.00;98782.94;1703252;83;20195;-68
2021/11/03 09:21:45;;;;;;;;;;;;;;;10.09;100.00;98786.97;1699386;84;21101;-71
2021/11/03 09:24:13;;;;;;;;;;;;;;;10.06;100.00;98802.23;1703283;84;20149;-71
2021/11/03 09:26:41;;;;;;;;;;;;;;;10.13;100.00;98794.47;1710614;83;20144;-70
2021/11/03 09:29:11;;;;;;;;;;;;;;;10.26;100.00;98793.91;1712443;83;20142;-73
2021/11/03 09:31:41;;;;;;;;;;;;;;;10.83;100.00;98792.77;1712765;83;21154;-71
2021/11/03 09:34:08;;;;;;;;;;;;;;;10.96;100.00;98800.76;1715777;82;21210;-73
2021/11/03 09:36:41;;;;;;;;;;;;;;;10.91;100.00;98797.55;1717023;83;20220;-70
2021/11/03 09:39:05;;;;;;;;;;;;;;;10.75;100.00;98801.36;1718901;83;20127;-71
2021/11/03 09:41:46;;;;;;;;;;;;;;;10.58;100.00;98801.66;1708873;83;20149;-72
2021/11/03 09:44:19;;;;;;;;;;;;;;;10.59;100.00;98805.97;1703484;84;20496;-71
2021/11/03 09:46:48;;;;;;;;;;;;;;;10.78;100.00;98816.94;1702499;84;22008;-73
2021/11/03 09:49:24;;;;;;;;;;;;;;;11.40;100.00;98814.00;1703155;84;20102;-72
2021/11/03 09:51:54;;;;;;;;;;;;;;;11.37;100.00;98816.16;1704836;83;20222;-69
2021/11/03 09:54:29;;;;;;;;;;;;;;;11.45;100.00;98818.80;1703281;84;20135;-70
2021/11/03 09:57:26;;;;;;;;;;;;;;;11.48;100.00;98830.33;1682850;82;20164;-70
2021/11/03 10:00:03;;;;;;;;;;;;;;;11.61;100.00;98827.56;1674262;83;21827;-72
2021/11/03 10:02:56;;;;;;;;;;;;;;;11.52;100.00;98821.98;1685411;82;20108;-69
2021/11/03 10:05:47;;;;;;;;;;;;;;;11.61;100.00;98828.11;1681114;84;20224;-71
2021/11/03 10:08:18;;;;;;;;;;;;;;;11.48;100.00;98836.25;1691283;84;20141;-71
2021/11/03 10:10:59;;;;;;;;;;;;;;;11.35;100.00;98829.61;1673189;85;20121;-71
2021/11/03 10:13:28;;;;;;;;;;;;;;;11.47;100.00;98838.69;1676276;83;21099;-70
2021/11/03 10:16:15;;;;;;;;;;;;;;;11.94;100.00;98842.18;1732656;83;20450;-71
2021/11/03 10:18:56;;;;;;;;;;;;;;;11.82;100.00;98853.00;1692103;84;20152;-68
2021/11/03 10:21:28;;;;;;;;;;;;;;;11.69;100.00;98853.88;1667037;85;20212;-70
2021/11/03 10:23:58;;;;;;;;;;;;;;;11.35;100.00;98863.98;1655563;86;20494;-65
2021/11/03 10:26:28;;;;;;;;;;;;;;;11.24;100.00;98875.05;1654790;86;21322;-70
2021/11/03 10:29:21;;;;;;;;;;;;;;;10.99;100.00;98863.30;1653675;86;20144;-72
2021/11/03 10:32:02;;;;;;;;;;;;;;;11.03;100.00;98874.33;1654214;86;20158;-68
2021/11/03 10:34:44;;;;;;;;;;;;;;;11.81;100.00;98869.67;1652047;85;20595;-69
2021/11/03 10:37:23;;;;;;;;;;;;;;;12.44;100.00;98859.53;1653881;86;20260;-70
2021/11/03 10:40:02;;;;;;;;;;;;;;;12.65;100.00;98867.69;1649384;86;21151;-70
2021/11/03 10:42:51;;;;;;;;;;;;;;;12.76;100.00;98863.00;1649183;86;20221;-73
2021/11/03 10:45:36;;;;;;;;;;;;;;;13.05;100.00;98866.20;1654594;86;20699;-69
2021/11/03 10:48:25;;;;;;;;;;;;;;;13.17;100.00;98888.16;1656616;85;20228;-69
2021/11/03 10:51:00;;;;;;;;;;;;;;;12.89;100.00;98893.86;1655979;85;20183;-73
2021/11/03 10:53:34;;;;;;;;;;;;;;;12.29;100.00;98902.73;1653896;85;21174;-70
2021/11/03 10:56:05;;;;;;;;;;;;;;;12.56;100.00;98906.27;1650703;86;20467;-71
2021/11/03 10:58:53;;;;;;;;;;;;;;;12.98;100.00;98902.11;1654383;86;20210;-71
2021/11/03 11:01:29;;;;;;;;;;;;;;;13.25;100.00;98910.98;1653749;85;20220;-73
2021/11/03 11:04:08;;;;;;;;;;;;;;;13.58;100.00;98899.84;1657636;85;20182;-74
2021/11/03 11:06:43;;;;;;;;;;;;;;;13.41;99.80;98911.09;1654182;85;22630;-74
2021/11/03 11:09:17;;;;;;;;;;;;;;;13.24;100.00;98900.75;1653734;85;20258;-73
2021/11/03 11:11:46;;;;;;;;;;;;;;;13.44;98.36;98901.08;1659554;85;20524;-71
2021/11/03 11:14:19;;;;;;;;;;;;;;;13.61;98.71;98895.77;1658160;83;20199;-73
2021/11/03 11:16:58;;;;;;;;;;;;;;;13.79;96.37;98890.13;1703233;83;20433;-73
2021/11/03 11:19:59;;;;;;;;;;;;;;;13.85;97.52;98899.20;1694693;84;21159;-70
2021/11/03 11:22:50;;;;;;;;;;;;;;;14.08;95.88;98912.91;1695544;83;20143;-72
2021/11/03 11:25:21;;;;;;;;;;;;;;;14.41;92.85;98918.37;1659025;86;20188;-72
2021/11/03 11:28:19;;;;;;;;;;;;;;;14.72;90.73;98920.86;1644807;87;20198;-73
2021/11/03 11:30:52;;;;;;;;;;;;;;;14.86;86.89;98930.33;1651182;84;20365;-72
2021/11/03 11:33:29;;;;;;;;;;;;;;;15.12;84.27;98921.22;1668298;86;21167;-73
2021/11/03 11:36:30;;;;;;;;;;;;;;;14.79;83.80;98925.86;1694427;84;20191;-70
2021/11/03 11:39:06;;;;;;;;;;;;;;;14.71;85.87;98932.74;1613202;87;20196;-57
2021/11/03 11:42:10;;;;;;;;;;;;;;;14.41;87.96;98938.62;1604800;87;20108;-58
2021/11/03 11:45:04;;;;;;;;;;;;;;;13.99;90.33;98937.06;1617415;87;20166;-58
2021/11/03 11:47:36;;;;;;;;;;;;;;;14.02;89.65;98931.08;1623161;88;21161;-57
2021/11/03 11:50:06;;;;;;;;;;;;;;;14.02;88.58;98936.48;1633051;87;20414;-59
2021/11/03 11:52:34;;;;;;;;;;;;;;;14.12;88.23;98930.13;1625085;88;20207;-58
2021/11/03 11:55:15;;;;;;;;;;;;;;;13.56;91.69;98937.62;1631499;88;20407;-58
2021/11/03 11:57:46;;;;;;;;;;;;;;;12.87;97.84;98942.61;1614437;88;20490;-58
2021/11/03 12:00:18;;;;;;;;;;;;;;;12.61;100.00;98944.72;1632637;87;21759;-58
2021/11/03 12:02:51;;;;;;;;;;;;;;;12.48;100.00;98953.45;1613953;87;20154;-58
2021/11/03 12:05:45;;;;;;;;;;;;;;;12.53;100.00;98950.72;1626301;88;20469;-58
2021/11/03 12:08:12;;;;;;;;;;;;;;;12.28;100.00;98965.70;1621952;87;20098;-59
2021/11/03 12:10:48;;;;;;;;;;;;;;;11.92;100.00;98962.66;1614358;88;20388;-59
2021/11/03 12:13:17;;;;;;;;;;;;;;;11.61;100.00;98965.98;1611834;87;21141;-59
2021/11/03 12:15:54;;;;;;;;;;;;;;;11.66;100.00;98970.55;1601668;89;20131;-58
2021/11/03 12:18:30;;;;;;;;;;;;;;;11.68;100.00;98971.08;1609732;89;20176;-58
2021/11/03 12:21:06;;;;;;;;;;;;;;;11.52;100.00;98971.69;1609955;89;20463;-57
2021/11/03 12:23:55;;;;;;;;;;;;;;;11.36;100.00;98969.57;1610222;89;20178;-57
2021/11/03 12:26:28;;;;;;;;;;;;;;;11.31;100.00;98975.76;1607819;88;21231;-58
2021/11/03 12:29:16;;;;;;;;;;;;;;;11.34;100.00;98979.78;1607399;87;20158;-58
2021/11/03 12:31:51;;;;;;;;;;;;;;;11.39;100.00;98983.80;1607357;89;20176;-57
2021/11/03 12:34:26;;;;;;;;;;;;;;;11.77;100.00;98990.95;1608326;89;20199;-58
2021/11/03 12:36:56;;;;;;;;;;;;;;;12.32;100.00;99007.11;1615905;87;20137;-57
2021/11/03 12:39:33;;;;;;;;;;;;;;;12.72;100.00;99011.42;1598422;89;21096;-59
2021/11/03 12:42:13;;;;;;;;;;;;;;;12.61;100.00;99012.57;1622152;88;20172;-59
2021/11/03 12:44:42;;;;;;;;;;;;;;;12.49;99.05;99013.46;1625124;88;20188;-58
2021/11/03 12:47:29;;;;;;;;;;;;;;;12.60;100.00;99016.36;1621626;88;20238;-59
2021/11/03 12:50:05;;;;;;;;;;;;;;;12.75;99.79;99027.02;1608383;89;20454;-58
2021/11/03 12:52:35;;;;;;;;;;;;;;;12.61;100.00;99025.48;1607810;87;21164;-58
2021/11/03 12:55:02;;;;;;;;;;;;;;;12.38;100.00;99039.65;1613412;87;20188;-59
2021/11/03 12:57:29;;;;;;;;;;;;;;;12.03;100.00;99038.75;1633546;87;20181;-58
2021/11/03 13:00:11;;;;;;;;;;;;;;;11.61;100.00;99026.47;1624787;87;20144;-59
2021/11/03 13:02:44;;;;;;;;;;;;;;;11.35;100.00;99039.17;1606684;89;20117;-59
2021/11/03 13:05:26;;;;;;;;;;;;;;;11.47;100.00;99040.23;1599120;89;21158;-59